createdAt,value
2019-02-22T00:01:04.191Z,25.27
2019-02-22T00:03:32.998Z,27.10
2019-02-22T00:06:01.463Z,27.47
2019-02-22T00:08:30.025Z,26.80
2019-02-22T00:10:58.562Z,26.00
2019-02-22T00:13:27.059Z,25.10
2019-02-22T00:15:55.513Z,26.93
2019-02-22T00:18:23.987Z,27.30
2019-02-22T00:20:52.471Z,26.50
2019-02-22T00:23:20.954Z,26.90
2019-02-22T00:25:49.470Z,26.00
2019-02-22T00:28:17.942Z,25.77
2019-02-22T00:30:46.504Z,24.97
2019-02-22T00:33:14.989Z,25.57
2019-02-22T00:35:43.592Z,24.00
2019-02-22T00:38:12.093Z,25.27
2019-02-22T00:40:40.551Z,24.77
2019-02-22T00:43:09.021Z,24.30
2019-02-22T00:45:37.497Z,24.47
2019-02-22T00:48:05.979Z,23.90
2019-02-22T00:50:34.429Z,24.33
2019-02-22T00:53:02.881Z,23.17
2019-02-22T00:55:31.353Z,23.93
2019-02-22T00:57:59.839Z,23.33
2019-02-22T01:00:28.313Z,23.03
2019-02-22T01:02:56.761Z,23.43
2019-02-22T01:05:25.321Z,22.80
2019-02-22T01:07:53.783Z,22.87
2019-02-22T01:10:30.887Z,23.23
2019-02-22T01:12:52.833Z,23.70
2019-02-22T01:15:21.319Z,22.87
2019-02-22T01:17:49.844Z,23.10
2019-02-22T01:20:18.335Z,21.87
2019-02-22T01:22:46.799Z,21.53
2019-02-22T01:25:15.284Z,23.23
2019-02-22T01:27:43.736Z,22.90
2019-02-22T01:30:12.297Z,22.80
2019-02-22T01:32:40.852Z,21.80
2019-02-22T01:35:09.378Z,22.67
2019-02-22T01:37:37.937Z,22.17
2019-02-22T01:40:09.335Z,22.60
2019-02-22T01:42:37.827Z,21.60
2019-02-22T01:45:07.332Z,22.53
2019-02-22T01:47:35.826Z,22.13
2019-02-22T01:50:05.519Z,23.10
2019-02-22T01:52:34.018Z,22.67
2019-02-22T01:55:02.521Z,23.07
2019-02-22T01:57:31.053Z,21.80
2019-02-22T01:59:59.624Z,22.43
2019-02-22T02:02:28.088Z,22.47
2019-02-22T02:04:56.568Z,21.17
2019-02-22T02:07:25.027Z,21.83
2019-02-22T02:09:53.497Z,22.30
2019-02-22T02:12:21.970Z,22.53
2019-02-22T02:14:50.442Z,20.70
2019-02-22T02:17:18.913Z,21.80
2019-02-22T02:19:47.450Z,21.10
2019-02-22T02:22:15.897Z,21.70
2019-02-22T02:24:44.387Z,22.60
2019-02-22T02:27:12.919Z,23.07
2019-02-22T02:29:41.397Z,22.53
2019-02-22T02:32:09.866Z,21.93
2019-02-22T02:34:38.397Z,21.93
2019-02-22T02:37:06.848Z,20.80
2019-02-22T02:39:35.365Z,23.10
2019-02-22T02:42:03.809Z,22.73
2019-02-22T02:44:32.271Z,22.70
2019-02-22T02:47:00.740Z,23.83
2019-02-22T02:49:29.203Z,21.40
2019-02-22T02:51:57.673Z,21.97
2019-02-22T02:54:26.149Z,21.33
2019-02-22T02:56:54.642Z,23.27
2019-02-22T02:59:23.179Z,24.00
2019-02-22T03:01:51.628Z,22.23
2019-02-22T03:04:20.469Z,22.63
2019-02-22T03:06:50.569Z,22.27
2019-02-22T03:09:19.018Z,22.00
2019-02-22T03:11:47.508Z,22.13
2019-02-22T03:14:15.992Z,23.13
2019-02-22T03:16:44.441Z,22.60
2019-02-22T03:19:13.207Z,22.20
2019-02-22T03:21:41.657Z,22.53
2019-02-22T03:24:10.124Z,22.43
2019-02-22T03:26:38.613Z,23.13
2019-02-22T03:29:07.082Z,23.03
2019-02-22T03:31:35.959Z,23.20
2019-02-22T03:34:04.727Z,24.57
2019-02-22T03:36:33.269Z,23.57
2019-02-22T03:39:01.737Z,23.10
2019-02-22T03:41:33.216Z,24.23
2019-02-22T03:44:00.651Z,25.73
2019-02-22T03:46:29.394Z,25.50
2019-02-22T03:48:57.886Z,24.17
2019-02-22T03:51:26.335Z,24.57
2019-02-22T03:53:57.408Z,24.43
2019-02-22T03:56:25.351Z,25.13
2019-02-22T03:58:53.961Z,23.90
2019-02-22T04:01:22.583Z,25.60
2019-02-22T04:04:10.665Z,24.53
2019-02-22T04:06:39.137Z,24.27
2019-02-22T04:09:10.593Z,25.60
2019-02-22T04:11:45.847Z,25.00
2019-02-22T04:14:11.957Z,25.30
2019-02-22T04:16:41.583Z,25.10
2019-02-22T04:19:11.206Z,24.87
2019-02-22T04:21:39.706Z,26.17
2019-02-22T04:24:09.715Z,25.33
2019-02-22T04:26:45.448Z,26.47
2019-02-22T04:29:15.580Z,25.40
2019-02-22T04:31:44.479Z,25.60
2019-02-22T04:34:14.046Z,26.17
2019-02-22T04:36:42.560Z,26.67
2019-02-22T04:39:11.082Z,26.33
2019-02-22T04:41:39.584Z,25.43
2019-02-22T04:44:08.082Z,24.67
2019-02-22T04:46:36.649Z,26.03
2019-02-22T04:49:05.455Z,26.27
2019-02-22T04:51:34.996Z,26.70
2019-02-22T04:54:03.565Z,26.77
2019-02-22T04:56:43.385Z,25.80
2019-02-22T04:59:13.079Z,25.97
2019-02-22T05:02:04.540Z,26.27
2019-02-22T05:04:33.299Z,27.33
2019-02-22T05:09:31.501Z,27.23
2019-02-22T05:12:10.310Z,26.67
2019-02-22T05:14:31.992Z,26.27
2019-02-22T05:17:01.598Z,25.73
2019-02-22T05:19:31.124Z,25.27
2019-02-22T05:22:06.888Z,26.70
2019-02-22T05:24:35.373Z,26.43
2019-02-22T05:27:05.228Z,25.87
2019-02-22T05:29:36.394Z,25.73
2019-02-22T05:32:04.956Z,25.27
2019-02-22T05:34:33.671Z,24.67
2019-02-22T05:37:02.242Z,23.70
2019-02-22T05:39:31.069Z,23.30
2019-02-22T05:42:00.626Z,24.33
2019-02-22T05:44:29.455Z,24.33
2019-02-22T05:47:00.684Z,25.50
2019-02-22T05:49:28.250Z,25.37
2019-02-22T05:51:56.870Z,25.83
2019-02-22T05:54:25.430Z,25.63
2019-02-22T05:56:55.215Z,25.50
2019-02-22T05:59:26.008Z,26.70
2019-02-22T06:01:54.484Z,25.50
2019-02-22T06:04:23.018Z,26.07
2019-02-22T06:06:51.509Z,25.40
2019-02-22T06:09:19.999Z,25.63
2019-02-22T06:11:48.554Z,26.53
2019-02-22T06:14:18.449Z,25.00
2019-02-22T06:16:47.017Z,26.40
2019-02-22T06:19:18.572Z,25.17
2019-02-22T06:21:48.099Z,26.47
2019-02-22T06:24:17.786Z,26.07
2019-02-22T06:26:47.297Z,27.67
2019-02-22T06:29:15.847Z,26.43
2019-02-22T06:31:47.042Z,25.60
2019-02-22T06:34:15.524Z,26.83
2019-02-22T06:36:44.343Z,27.57
2019-02-22T06:39:12.909Z,26.33
2019-02-22T06:41:41.381Z,25.50
2019-02-22T06:44:11.966Z,26.07
2019-02-22T06:46:42.861Z,24.93
2019-02-22T06:49:12.331Z,25.53
2019-02-22T06:51:40.786Z,27.37
2019-02-22T06:54:10.537Z,25.90
2019-02-22T06:56:40.398Z,25.57
2019-02-22T06:59:10.266Z,25.53
2019-02-22T07:01:39.850Z,25.13
2019-02-22T07:04:08.412Z,25.77
2019-02-22T07:06:36.898Z,25.17
2019-02-22T07:09:06.746Z,25.53
2019-02-22T07:11:43.019Z,25.10
2019-02-22T07:14:12.741Z,25.33
2019-02-22T07:16:41.230Z,25.03
2019-02-22T07:19:10.893Z,25.20
2019-02-22T07:21:52.124Z,25.13
2019-02-22T07:24:13.851Z,25.70
2019-02-22T07:26:44.240Z,26.30
2019-02-22T07:29:13.989Z,26.17
2019-02-22T07:31:42.468Z,27.80
2019-02-22T07:34:12.576Z,27.37
2019-02-22T07:36:42.340Z,26.73
2019-02-22T07:39:13.548Z,25.30
2019-02-22T07:41:42.012Z,27.83
2019-02-22T07:44:11.542Z,26.30
2019-02-22T07:46:40.031Z,26.07
2019-02-22T07:49:08.538Z,27.37
2019-02-22T07:51:39.752Z,27.33
2019-02-22T07:54:08.230Z,27.43
2019-02-22T07:59:42.231Z,26.03
2019-02-22T08:02:11.955Z,27.13
2019-02-22T08:04:40.447Z,27.63
2019-02-22T08:07:09.251Z,28.17
2019-02-22T08:09:38.830Z,29.17
2019-02-22T08:12:07.327Z,28.07
2019-02-22T08:14:38.848Z,27.93
2019-02-22T08:17:08.638Z,26.87
2019-02-22T08:19:37.512Z,28.70
2019-02-22T08:22:06.031Z,27.70
2019-02-22T08:24:35.890Z,28.03
2019-02-22T08:27:05.925Z,28.33
2019-02-22T08:29:38.152Z,28.03
2019-02-22T08:32:05.730Z,28.07
2019-02-22T08:34:34.299Z,27.23
2019-02-22T08:37:03.116Z,27.97
2019-02-22T08:39:31.599Z,27.17
2019-02-22T08:42:01.176Z,27.53
2019-02-22T08:44:30.845Z,27.27
2019-02-22T08:47:02.487Z,26.53
2019-02-22T08:49:32.097Z,28.30
2019-02-22T08:52:01.698Z,27.67
2019-02-22T08:54:31.270Z,27.90
2019-02-22T08:57:00.274Z,26.83
2019-02-22T08:59:30.504Z,26.50
2019-02-22T09:05:29.175Z,27.00
2019-02-22T09:08:00.262Z,28.57
2019-02-22T09:10:30.006Z,27.80
2019-02-22T09:13:14.548Z,25.97
2019-02-22T09:15:43.032Z,26.27
2019-02-22T09:18:12.825Z,25.33
2019-02-22T09:21:17.393Z,25.27
2019-02-22T09:23:46.900Z,24.43
2019-02-22T09:26:16.459Z,25.73
2019-02-22T09:28:45.993Z,24.03
2019-02-22T09:31:20.730Z,24.23
2019-02-22T09:33:49.642Z,24.10
2019-02-22T09:36:19.698Z,23.70
2019-02-22T09:42:16.969Z,22.40
2019-02-22T09:44:46.714Z,23.10
2019-02-22T09:47:16.357Z,23.43
2019-02-22T09:49:45.933Z,23.23
2019-02-22T09:52:14.439Z,24.27
2019-02-22T09:54:42.911Z,22.17
2019-02-22T09:57:11.707Z,22.17
2019-02-22T09:59:50.625Z,22.67
2019-02-22T10:02:19.126Z,22.40
2019-02-22T10:04:55.077Z,22.57
2019-02-22T10:07:17.797Z,20.63
2019-02-22T10:09:46.549Z,21.57
2019-02-22T10:12:15.030Z,20.33
2019-02-22T10:14:43.826Z,20.17
2019-02-22T10:17:12.278Z,22.07
2019-02-22T10:19:41.186Z,20.50
2019-02-22T10:22:09.641Z,21.17
2019-02-22T10:24:38.114Z,20.20
2019-02-22T10:27:06.849Z,21.60
2019-02-22T10:29:35.327Z,20.27
2019-02-22T10:32:03.811Z,19.90
2019-02-22T10:34:32.287Z,20.00
2019-02-22T10:37:00.748Z,18.90
2019-02-22T10:39:29.569Z,19.27
2019-02-22T10:41:58.066Z,19.20
2019-02-22T10:44:26.509Z,19.63
2019-02-22T10:46:54.957Z,19.10
2019-02-22T10:49:23.696Z,16.80
2019-02-22T10:51:52.243Z,17.47
2019-02-22T10:54:21.061Z,17.43
2019-02-22T10:56:49.565Z,17.10
2019-02-22T10:59:18.023Z,17.97
2019-02-22T11:01:46.483Z,17.93
2019-02-22T11:04:14.969Z,16.93
2019-02-22T11:06:43.449Z,17.10
2019-02-22T11:09:11.974Z,16.53
2019-02-22T11:11:40.746Z,15.57
2019-02-22T11:14:09.530Z,15.33
2019-02-22T11:16:38.028Z,14.53
2019-02-22T11:19:06.496Z,14.50
2019-02-22T11:21:35.040Z,15.07
2019-02-22T11:24:03.869Z,14.20
2019-02-22T11:26:32.403Z,13.47
2019-02-22T11:29:00.923Z,12.60
2019-02-22T11:31:29.389Z,13.10
2019-02-22T11:33:57.860Z,13.47
2019-02-22T11:36:26.329Z,13.87
2019-02-22T11:38:54.828Z,12.63
2019-02-22T11:41:23.347Z,13.57
2019-02-22T11:43:51.821Z,12.70
2019-02-22T11:46:20.299Z,12.87
2019-02-22T11:48:48.758Z,13.30
2019-02-22T11:51:17.227Z,12.23
2019-02-22T11:53:45.700Z,12.63
2019-02-22T11:56:14.545Z,12.53
2019-02-22T11:58:42.991Z,12.30
2019-02-22T12:01:12.145Z,12.00
2019-02-22T12:03:40.594Z,11.87
2019-02-22T12:06:09.060Z,12.40
2019-02-22T12:08:37.539Z,11.17
2019-02-22T12:11:06.161Z,11.53
2019-02-22T12:13:34.708Z,12.13
2019-02-22T12:16:03.178Z,11.20
2019-02-22T12:18:31.739Z,11.20
2019-02-22T12:21:00.201Z,11.33
2019-02-22T12:23:28.663Z,10.73
2019-02-22T12:25:57.149Z,11.90
2019-02-22T12:28:25.620Z,10.90
2019-02-22T12:30:54.113Z,10.10
2019-02-22T12:33:22.897Z,10.00
2019-02-22T12:35:51.443Z,10.07
2019-02-22T12:38:19.921Z,9.97
2019-02-22T12:40:48.753Z,10.27
2019-02-22T12:43:17.248Z,9.73
2019-02-22T12:45:46.008Z,9.07
2019-02-22T12:48:14.497Z,9.63
2019-02-22T12:50:42.937Z,9.67
2019-02-22T12:53:11.423Z,10.33
2019-02-22T12:55:39.896Z,9.90
2019-02-22T12:58:08.375Z,9.60
2019-02-22T13:00:36.855Z,10.30
2019-02-22T13:03:05.611Z,13.90
2019-02-22T13:05:34.072Z,13.17
2019-02-22T13:08:02.617Z,10.70
2019-02-22T13:10:31.262Z,11.87
2019-02-22T13:12:59.755Z,10.80
2019-02-22T13:15:28.283Z,11.20
2019-02-22T13:17:56.743Z,11.33
2019-02-22T13:20:25.229Z,11.50
2019-02-22T13:22:53.707Z,9.90
2019-02-22T13:25:22.189Z,8.63
2019-02-22T13:27:50.653Z,9.27
2019-02-22T13:30:19.122Z,9.37
2019-02-22T13:32:47.607Z,8.30
2019-02-22T13:35:16.317Z,8.60
2019-02-22T13:37:44.793Z,8.23
2019-02-22T13:40:17.618Z,7.90
2019-02-22T13:42:46.075Z,8.23
2019-02-22T13:45:26.192Z,7.57
2019-02-22T13:47:45.435Z,8.80
2019-02-22T13:50:17.887Z,8.73
2019-02-22T13:52:46.609Z,7.73
2019-02-22T13:55:15.189Z,7.57
2019-02-22T13:57:43.696Z,6.97
2019-02-22T14:00:17.522Z,7.90
2019-02-22T14:02:46.253Z,7.37
2019-02-22T14:05:14.784Z,7.17
2019-02-22T14:07:54.998Z,6.57
2019-02-22T14:10:24.607Z,5.97
2019-02-22T14:12:53.050Z,5.63
2019-02-22T14:15:21.976Z,5.97
2019-02-22T14:17:50.499Z,5.80
2019-02-22T14:20:19.108Z,6.07
2019-02-22T14:22:49.111Z,5.90
2019-02-22T14:25:17.583Z,6.70
2019-02-22T14:27:46.086Z,6.07
2019-02-22T14:30:15.963Z,6.00
2019-02-22T14:32:44.434Z,6.03
2019-02-22T14:35:13.173Z,5.37
2019-02-22T14:37:42.088Z,5.47
2019-02-22T14:40:12.093Z,5.47
2019-02-22T14:42:40.626Z,5.37
2019-02-22T14:45:11.043Z,5.43
2019-02-22T14:47:39.928Z,5.17
2019-02-22T14:50:18.897Z,5.23
2019-02-22T14:52:47.368Z,5.50
2019-02-22T14:55:15.858Z,5.33
2019-02-22T14:57:45.367Z,5.50
2019-02-22T15:00:16.919Z,5.10
2019-02-22T15:02:45.380Z,5.33
2019-02-22T15:05:14.787Z,5.77
2019-02-22T15:07:43.557Z,5.53
2019-02-22T15:10:12.747Z,5.03
2019-02-22T15:12:41.271Z,4.87
2019-02-22T15:15:14.705Z,5.07
2019-02-22T15:17:44.972Z,4.70
2019-02-22T15:20:13.598Z,4.70
2019-02-22T15:22:42.432Z,5.67
2019-02-22T15:25:13.520Z,5.17
2019-02-22T15:27:41.986Z,5.10
2019-02-22T15:30:13.977Z,4.67
2019-02-22T15:32:42.577Z,5.00
2019-02-22T15:35:13.398Z,4.93
2019-02-22T15:37:43.348Z,4.83
2019-02-22T15:40:12.856Z,4.70
2019-02-22T15:42:41.429Z,5.10
2019-02-22T15:45:12.667Z,5.03
2019-02-22T15:47:41.201Z,4.80
2019-02-22T15:50:12.735Z,4.70
2019-02-22T15:52:41.274Z,4.93
2019-02-22T15:55:09.728Z,4.70
2019-02-22T15:57:38.182Z,4.77
2019-02-22T16:00:12.710Z,4.47
2019-02-22T16:02:41.176Z,5.03
2019-02-22T16:05:32.026Z,4.70
2019-02-22T16:08:01.834Z,4.77
2019-02-22T16:10:31.784Z,4.40
2019-02-22T16:13:00.244Z,4.77
2019-02-22T16:15:29.075Z,4.60
2019-02-22T16:18:01.651Z,3.93
2019-02-22T16:20:30.138Z,4.40
2019-02-22T16:22:58.620Z,4.47
2019-02-22T16:25:28.660Z,4.23
2019-02-22T16:27:57.136Z,4.23
2019-02-22T16:30:28.373Z,4.87
2019-02-22T16:32:56.874Z,4.60
2019-02-22T16:35:26.375Z,4.77
2019-02-22T16:37:54.835Z,4.80
2019-02-22T16:40:24.575Z,4.87
2019-02-22T16:42:53.060Z,4.73
2019-02-22T16:45:23.148Z,4.20
2019-02-22T16:47:59.287Z,4.60
2019-02-22T16:50:27.771Z,4.57
2019-02-22T16:52:56.255Z,4.80
2019-02-22T16:55:25.993Z,4.10
2019-02-22T16:57:55.404Z,4.90
2019-02-22T17:00:24.987Z,4.80
2019-02-22T17:02:53.454Z,5.50
2019-02-22T17:05:23.265Z,5.23
2019-02-22T17:07:52.793Z,5.17
2019-02-22T17:10:22.587Z,5.07
2019-02-22T17:12:51.438Z,5.80
2019-02-22T17:15:21.980Z,5.27
2019-02-22T17:17:50.502Z,5.63
2019-02-22T17:20:19.052Z,6.20
2019-02-22T17:22:47.513Z,5.03
2019-02-22T17:25:21.615Z,4.47
2019-02-22T17:27:51.071Z,5.10
2019-02-22T17:30:21.774Z,5.17
2019-02-22T17:32:52.313Z,5.83
2019-02-22T17:35:21.914Z,4.93
2019-02-22T17:37:51.362Z,5.47
2019-02-22T17:40:26.301Z,5.77
2019-02-22T17:42:54.794Z,6.27
2019-02-22T17:45:24.292Z,6.63
2019-02-22T17:47:54.096Z,5.87
2019-02-22T17:50:22.751Z,6.07
2019-02-22T17:52:51.486Z,6.07
2019-02-22T17:55:21.039Z,6.10
2019-02-22T17:57:50.860Z,6.47
2019-02-22T18:00:25.627Z,6.17
2019-02-22T18:02:55.197Z,5.80
2019-02-22T18:05:24.789Z,5.87
2019-02-22T18:07:53.266Z,5.50
2019-02-22T18:10:21.783Z,5.87
2019-02-22T18:12:50.317Z,5.43
2019-02-22T18:15:18.798Z,5.10
2019-02-22T18:17:47.604Z,5.83
2019-02-22T18:20:16.099Z,4.87
2019-02-22T18:22:44.577Z,5.10
2019-02-22T18:25:14.386Z,5.30
2019-02-22T18:27:42.854Z,5.30
2019-02-22T18:30:16.957Z,5.10
2019-02-22T18:32:45.444Z,5.30
2019-02-22T18:35:14.269Z,5.23
2019-02-22T18:37:43.246Z,4.77
2019-02-22T18:40:15.745Z,6.13
2019-02-22T18:42:44.526Z,5.13
2019-02-22T18:45:14.143Z,5.43
2019-02-22T18:47:43.032Z,5.50
2019-02-22T18:50:41.958Z,6.10
2019-02-22T18:53:10.703Z,5.43
2019-02-22T18:55:49.337Z,5.53
2019-02-22T18:58:11.947Z,5.20
2019-02-22T19:00:40.417Z,4.60
2019-02-22T19:03:08.912Z,4.73
2019-02-22T19:05:37.370Z,4.47
2019-02-22T19:08:06.923Z,4.87
2019-02-22T19:10:35.393Z,4.17
2019-02-22T19:13:05.193Z,4.73
2019-02-22T19:15:33.659Z,4.60
2019-02-22T19:18:03.234Z,4.50
2019-02-22T19:20:31.746Z,4.43
2019-02-22T19:23:00.234Z,4.67
2019-02-22T19:25:28.697Z,4.73
2019-02-22T19:27:58.404Z,4.63
2019-02-22T19:30:30.045Z,4.47
2019-02-22T19:32:58.578Z,4.93
2019-02-22T19:35:27.073Z,4.57
2019-02-22T19:37:55.535Z,4.67
2019-02-22T19:40:29.738Z,4.60
2019-02-22T19:42:58.217Z,5.13
2019-02-22T19:45:27.090Z,4.80
2019-02-22T19:47:55.656Z,4.70
2019-02-22T19:50:24.477Z,4.90
2019-02-22T19:52:59.122Z,5.13
2019-02-22T19:55:27.986Z,5.20
2019-02-22T19:57:56.858Z,4.87
2019-02-22T20:00:26.498Z,5.00
2019-02-22T20:02:55.326Z,5.37
2019-02-22T20:05:23.792Z,5.07
2019-02-22T20:08:16.794Z,5.07
2019-02-22T20:10:45.351Z,4.80
2019-02-22T20:13:13.892Z,4.83
2019-02-22T20:15:42.443Z,4.67
2019-02-22T20:21:27.830Z,4.90
2019-02-22T20:24:34.615Z,5.13
2019-02-22T20:27:03.401Z,5.10
2019-02-22T20:29:31.883Z,4.90
2019-02-22T20:32:00.672Z,4.80
2019-02-22T20:34:29.157Z,5.20
2019-02-22T20:36:57.681Z,5.17
2019-02-22T20:39:26.201Z,4.80
2019-02-22T20:41:54.722Z,5.00
2019-02-22T20:44:23.186Z,5.47
2019-02-22T20:46:51.944Z,5.33
2019-02-22T20:49:21.413Z,5.53
2019-02-22T20:51:50.241Z,5.77
2019-02-22T20:54:19.744Z,5.80
2019-02-22T20:56:48.635Z,5.90
2019-02-22T20:59:18.012Z,5.20
2019-02-22T21:01:47.055Z,5.90
2019-02-22T21:04:41.024Z,6.13
2019-02-22T21:07:10.648Z,6.30
2019-02-22T21:09:40.838Z,6.60
2019-02-22T21:12:10.265Z,6.50
2019-02-22T21:14:39.141Z,6.20
2019-02-22T21:17:07.610Z,6.77
2019-02-22T21:19:36.066Z,5.77
2019-02-22T21:22:04.560Z,6.10
2019-02-22T21:24:33.029Z,5.80
2019-02-22T21:27:07.717Z,5.50
2019-02-22T21:29:39.213Z,5.93
2019-02-22T21:32:07.822Z,5.67
2019-02-22T21:34:36.319Z,5.47
2019-02-22T21:41:21.839Z,4.80
2019-02-22T21:43:50.656Z,4.67
2019-02-22T21:46:43.255Z,4.83
2019-02-22T21:49:19.560Z,5.10
2019-02-22T21:51:49.500Z,4.43
2019-02-22T21:54:17.974Z,4.60
2019-02-22T21:56:55.918Z,4.63
2019-02-22T21:59:48.622Z,4.40
2019-02-22T22:02:17.096Z,4.67
2019-02-22T22:04:45.562Z,4.70
2019-02-22T22:07:14.022Z,5.00
2019-02-22T22:09:42.482Z,4.90
2019-02-22T22:12:10.926Z,5.10
2019-02-22T22:14:39.412Z,5.50
2019-02-22T22:17:07.854Z,4.90
2019-02-22T22:19:36.301Z,5.60
2019-02-22T22:22:04.766Z,5.00
2019-02-22T22:24:33.318Z,5.07
2019-02-22T22:27:02.050Z,5.50
2019-02-22T22:29:30.497Z,5.67
2019-02-22T22:31:58.955Z,5.20
2019-02-22T22:34:27.433Z,5.23
2019-02-22T22:36:55.901Z,5.40
2019-02-22T22:39:24.433Z,5.73
2019-02-22T22:41:52.883Z,5.67
2019-02-22T22:44:21.713Z,5.33
2019-02-22T22:46:50.230Z,5.53
2019-02-22T22:49:18.991Z,5.30
2019-02-22T22:51:47.447Z,5.43
2019-02-22T22:54:15.877Z,5.03
2019-02-22T22:56:44.358Z,5.40
2019-02-22T22:59:12.831Z,5.20
2019-02-22T23:01:41.287Z,5.73
2019-02-22T23:04:09.766Z,5.10
2019-02-22T23:06:38.288Z,6.07
2019-02-22T23:09:08.489Z,5.40
2019-02-22T23:11:37.003Z,5.50
2019-02-22T23:14:05.610Z,5.83
2019-02-22T23:16:34.439Z,6.33
2019-02-22T23:19:03.014Z,6.50
2019-02-22T23:21:31.470Z,5.33
2019-02-22T23:23:59.927Z,6.80
2019-02-22T23:26:28.405Z,7.00
2019-02-22T23:28:56.864Z,7.47
2019-02-22T23:31:25.319Z,7.17
2019-02-22T23:33:53.785Z,7.13
2019-02-22T23:36:22.279Z,7.83
2019-02-22T23:38:50.725Z,8.60
2019-02-22T23:41:19.457Z,9.47
2019-02-22T23:43:47.926Z,8.67
2019-02-22T23:46:16.422Z,8.57
2019-02-22T23:48:44.990Z,8.63
2019-02-22T23:51:13.534Z,8.73
2019-02-22T23:53:42.000Z,8.10
2019-02-22T23:56:10.468Z,9.03
2019-02-22T23:58:38.952Z,8.87
